Time;durP1;ratioP1;P1;durP2;ratioP2;P2;SDS_P1;SDS_P2;PMS_P1;PMS_P2;Temp;Humidity;BMP_temperature;BMP_pressure;BME280_temperature;BME280_humidity;BME280_pressure;Samples;Min_cycle;Max_cycle;Signal;HPM_P1;HPM_P2
2021/06/25 00:02:27;;;;;;;0.50;0.50;;;;;;;;;;5015283;28;20036;-79
2021/06/25 00:04:53;;;;;;;1.17;1.08;;;;;;;;;;5029439;28;20324;-80
2021/06/25 00:07:19;;;;;;;1.08;1.00;;;;;;;;;;5021803;28;20068;-80
2021/06/25 00:09:45;;;;;;;0.85;0.85;;;;;;;;;;5026249;28;20341;-80
2021/06/25 00:12:11;;;;;;;1.85;0.63;;;;;;;;;;5018791;28;20133;-81
2021/06/25 00:14:38;;;;;;;1.02;1.00;;;;;;;;;;5030326;23;20021;-74
2021/06/25 00:17:04;;;;;;;1.77;1.00;;;;;;;;;;5001541;28;20520;-77
2021/06/25 00:19:30;;;;;;;1.27;0.70;;;;;;;;;;4993576;28;20030;-76
2021/06/25 00:21:57;;;;;;;1.17;0.98;;;;;;;;;;4994602;28;20081;-77
2021/06/25 00:24:23;;;;;;;0.60;0.60;;;;;;;;;;4994112;28;20474;-77
2021/06/25 00:26:50;;;;;;;0.70;0.50;;;;;;;;;;4995391;28;20041;-76
2021/06/25 00:29:16;;;;;;;0.60;0.60;;;;;;;;;;4976874;28;20066;-76
2021/06/25 00:31:42;;;;;;;0.65;0.63;;;;;;;;;;4993787;28;20026;-77
2021/06/25 00:34:09;;;;;;;1.02;0.70;;;;;;;;;;5003831;28;20064;-77
2021/06/25 00:36:35;;;;;;;0.60;0.60;;;;;;;;;;5010652;28;20022;-76
2021/06/25 00:39:01;;;;;;;1.75;0.60;;;;;;;;;;4993953;28;20097;-76
2021/06/25 00:41:27;;;;;;;0.57;0.57;;;;;;;;;;4994108;28;20475;-76
2021/06/25 00:43:53;;;;;;;1.13;0.65;;;;;;;;;;4993813;28;20065;-76
2021/06/25 00:46:19;;;;;;;1.15;0.68;;;;;;;;;;4993829;28;20036;-76
2021/06/25 00:48:45;;;;;;;0.60;0.60;;;;;;;;;;4993617;28;20034;-76
2021/06/25 00:51:12;;;;;;;0.50;0.50;;;;;;;;;;4993997;28;20027;-77
2021/06/25 00:53:40;;;;;;;0.80;0.80;;;;;;;;;;4993606;28;20022;-77
2021/06/25 00:56:10;;;;;;;1.02;0.65;;;;;;;;;;4993953;28;20053;-76
2021/06/25 00:58:37;;;;;;;0.85;0.70;;;;;;;;;;4993804;28;20376;-76
2021/06/25 01:01:03;;;;;;;0.77;0.77;;;;;;;;;;4993911;28;20023;-76
2021/06/25 01:03:29;;;;;;;0.47;0.47;;;;;;;;;;5001383;28;20015;-77
2021/06/25 01:05:55;;;;;;;0.50;0.50;;;;;;;;;;5010163;28;20022;-77
2021/06/25 01:08:22;;;;;;;0.50;0.50;;;;;;;;;;5004433;28;20023;-77
2021/06/25 01:10:48;;;;;;;0.60;0.60;;;;;;;;;;4993690;28;20025;-77
2021/06/25 01:13:15;;;;;;;0.63;0.50;;;;;;;;;;4993012;28;20061;-77
2021/06/25 01:15:41;;;;;;;2.15;0.85;;;;;;;;;;4992806;28;20030;-76
2021/06/25 01:18:07;;;;;;;0.52;0.52;;;;;;;;;;4992250;28;20023;-76
2021/06/25 01:20:34;;;;;;;0.50;0.50;;;;;;;;;;4992049;28;20026;-77
2021/06/25 01:23:00;;;;;;;0.55;0.55;;;;;;;;;;4992663;28;20084;-77
2021/06/25 01:25:31;;;;;;;1.10;0.50;;;;;;;;;;4992733;28;20081;-77
2021/06/25 01:28:18;;;;;;;0.50;0.50;;;;;;;;;;4992296;28;20038;-77
2021/06/25 01:30:45;;;;;;;1.23;0.52;;;;;;;;;;4975006;28;20515;-76
2021/06/25 01:33:13;;;;;;;0.40;0.40;;;;;;;;;;5000911;28;20105;-76
2021/06/25 01:35:39;;;;;;;0.40;0.40;;;;;;;;;;5006853;28;20026;-76
2021/06/25 01:38:06;;;;;;;2.50;0.68;;;;;;;;;;5003088;28;20034;-76
2021/06/25 01:40:32;;;;;;;1.00;0.35;;;;;;;;;;4974870;28;20026;-77
2021/06/25 01:43:00;;;;;;;1.90;0.38;;;;;;;;;;4992577;28;20026;-76
2021/06/25 01:45:27;;;;;;;0.47;0.43;;;;;;;;;;4992933;28;20031;-76
2021/06/25 01:47:53;;;;;;;0.35;0.32;;;;;;;;;;4992406;28;20030;-76
2021/06/25 01:50:24;;;;;;;0.50;0.45;;;;;;;;;;4992474;28;20030;-76
2021/06/25 01:52:50;;;;;;;0.47;0.30;;;;;;;;;;4992749;28;20110;-76
2021/06/25 01:55:16;;;;;;;1.15;0.28;;;;;;;;;;4993308;28;20026;-76
2021/06/25 01:57:43;;;;;;;0.70;0.70;;;;;;;;;;5013102;28;20034;-76
2021/06/25 02:00:09;;;;;;;0.50;0.50;;;;;;;;;;4996914;28;20490;-76
2021/06/25 02:02:35;;;;;;;0.35;0.35;;;;;;;;;;5001646;28;20402;-76
2021/06/25 02:05:01;;;;;;;2.47;0.50;;;;;;;;;;5007498;28;20018;-76
2021/06/25 02:07:27;;;;;;;2.03;0.50;;;;;;;;;;5015407;28;20022;-76
2021/06/25 02:09:55;;;;;;;1.27;0.57;;;;;;;;;;5000015;28;20027;-75
2021/06/25 02:12:22;;;;;;;1.70;0.60;;;;;;;;;;4996089;28;20492;-76
2021/06/25 02:14:48;;;;;;;1.65;0.60;;;;;;;;;;4995622;28;20030;-76
2021/06/25 02:17:16;;;;;;;0.75;0.50;;;;;;;;;;4995720;28;20025;-75
2021/06/25 02:19:42;;;;;;;0.50;0.50;;;;;;;;;;4995042;28;20033;-76
2021/06/25 02:22:08;;;;;;;1.50;0.50;;;;;;;;;;4977560;28;20117;-76
2021/06/25 02:24:35;;;;;;;0.40;0.40;;;;;;;;;;4995485;28;20038;-75
2021/06/25 02:27:01;;;;;;;0.57;0.47;;;;;;;;;;4995363;28;20530;-76
2021/06/25 02:29:27;;;;;;;0.40;0.40;;;;;;;;;;4994986;28;20034;-76
2021/06/25 02:31:53;;;;;;;1.48;0.40;;;;;;;;;;4997392;28;20031;-76
2021/06/25 02:34:19;;;;;;;0.50;0.50;;;;;;;;;;5003148;28;20482;-76
2021/06/25 02:36:45;;;;;;;0.55;0.52;;;;;;;;;;4978012;28;20111;-76
2021/06/25 02:39:13;;;;;;;1.38;0.40;;;;;;;;;;4995200;28;20399;-75
2021/06/25 02:41:39;;;;;;;0.38;0.38;;;;;;;;;;4996763;28;20019;-76
2021/06/25 02:44:05;;;;;;;0.30;0.28;;;;;;;;;;4996036;28;20088;-76
2021/06/25 02:46:31;;;;;;;0.70;0.65;;;;;;;;;;4995181;28;20037;-76
2021/06/25 02:48:57;;;;;;;0.30;0.30;;;;;;;;;;4994591;28;20035;-76
2021/06/25 02:51:23;;;;;;;0.68;0.50;;;;;;;;;;4994626;28;20031;-76
2021/06/25 02:53:50;;;;;;;0.30;0.30;;;;;;;;;;4994850;28;20031;-76
2021/06/25 02:56:16;;;;;;;1.10;0.35;;;;;;;;;;4994708;28;20026;-76
2021/06/25 02:58:42;;;;;;;0.57;0.35;;;;;;;;;;4994648;28;20105;-76
2021/06/25 03:01:08;;;;;;;0.98;0.50;;;;;;;;;;4994451;28;20475;-76
2021/06/25 03:03:34;;;;;;;1.35;0.47;;;;;;;;;;5002655;28;20026;-76
2021/06/25 03:06:00;;;;;;;0.30;0.30;;;;;;;;;;4994036;28;20029;-76
2021/06/25 03:08:26;;;;;;;0.40;0.40;;;;;;;;;;5013587;28;20057;-76
2021/06/25 03:10:52;;;;;;;0.50;0.50;;;;;;;;;;5007810;28;20029;-76
2021/06/25 03:13:19;;;;;;;1.17;0.55;;;;;;;;;;4976876;28;20030;-76
2021/06/25 03:15:45;;;;;;;0.45;0.40;;;;;;;;;;4994167;28;20137;-76
2021/06/25 03:18:12;;;;;;;0.30;0.30;;;;;;;;;;4994280;28;20022;-76
2021/06/25 03:20:38;;;;;;;0.35;0.35;;;;;;;;;;4994300;28;20025;-76
2021/06/25 03:23:04;;;;;;;0.35;0.35;;;;;;;;;;4997005;28;20030;-76
2021/06/25 03:25:31;;;;;;;0.47;0.47;;;;;;;;;;4994512;28;20482;-76
2021/06/25 03:27:57;;;;;;;0.28;0.28;;;;;;;;;;4994488;28;20101;-76
2021/06/25 03:30:23;;;;;;;0.65;0.50;;;;;;;;;;4994009;28;20026;-76
2021/06/25 03:32:49;;;;;;;2.55;0.73;;;;;;;;;;5001459;28;20100;-77
2021/06/25 03:35:15;;;;;;;0.65;0.60;;;;;;;;;;5005570;28;20112;-76
2021/06/25 03:37:41;;;;;;;0.88;0.77;;;;;;;;;;5013938;28;20033;-76
2021/06/25 03:40:10;;;;;;;1.30;0.80;;;;;;;;;;5013567;28;20030;-76
2021/06/25 03:42:36;;;;;;;1.48;0.75;;;;;;;;;;5001714;28;20036;-76
2021/06/25 03:45:03;;;;;;;1.63;0.73;;;;;;;;;;4994034;28;20369;-77
2021/06/25 03:47:29;;;;;;;0.60;0.60;;;;;;;;;;4994370;28;20026;-76
2021/06/25 03:49:55;;;;;;;1.27;0.50;;;;;;;;;;4994035;28;20061;-76
2021/06/25 03:52:21;;;;;;;0.65;0.55;;;;;;;;;;4994538;28;20317;-76
2021/06/25 03:54:47;;;;;;;1.52;0.70;;;;;;;;;;4976791;28;20030;-77
2021/06/25 03:57:13;;;;;;;0.60;0.60;;;;;;;;;;4977535;28;20054;-76
2021/06/25 03:59:39;;;;;;;2.33;0.77;;;;;;;;;;4995382;28;20030;-78
2021/06/25 04:02:10;;;;;;;0.60;0.60;;;;;;;;;;4995046;28;20026;-76
2021/06/25 04:04:37;;;;;;;0.32;0.32;;;;;;;;;;5001955;28;20026;-76
2021/06/25 04:07:03;;;;;;;0.57;0.57;;;;;;;;;;4994702;28;20057;-76
2021/06/25 04:09:29;;;;;;;0.88;0.57;;;;;;;;;;4994538;28;20049;-75
2021/06/25 04:11:56;;;;;;;0.63;0.63;;;;;;;;;;4993775;28;20210;-75
2021/06/25 04:14:22;;;;;;;0.93;0.93;;;;;;;;;;4993371;28;20031;-76
2021/06/25 04:16:48;;;;;;;1.55;0.70;;;;;;;;;;4993615;28;20034;-75
2021/06/25 04:19:14;;;;;;;1.02;0.85;;;;;;;;;;4975872;28;20049;-76
2021/06/25 04:21:40;;;;;;;0.63;0.63;;;;;;;;;;4976002;28;20443;-76
2021/06/25 04:24:06;;;;;;;0.50;0.50;;;;;;;;;;4993620;28;20043;-76
2021/06/25 04:26:33;;;;;;;0.50;0.50;;;;;;;;;;4993435;28;20080;-76
2021/06/25 04:28:59;;;;;;;1.55;0.70;;;;;;;;;;4993401;28;20092;-76
2021/06/25 04:31:25;;;;;;;0.50;0.50;;;;;;;;;;4993502;28;20479;-76
2021/06/25 04:33:51;;;;;;;0.60;0.60;;;;;;;;;;5001263;28;20053;-76
2021/06/25 04:36:17;;;;;;;1.95;0.70;;;;;;;;;;4995746;28;20034;-76
2021/06/25 04:38:43;;;;;;;2.33;0.80;;;;;;;;;;5012870;28;20022;-76
2021/06/25 04:41:09;;;;;;;0.80;0.80;;;;;;;;;;5005051;28;20061;-76
2021/06/25 04:43:35;;;;;;;0.60;0.60;;;;;;;;;;4992671;28;20019;-77
2021/06/25 04:46:01;;;;;;;1.67;1.02;;;;;;;;;;4981898;28;20383;-76
2021/06/25 04:48:28;;;;;;;0.60;0.60;;;;;;;;;;4973377;28;20030;-76
2021/06/25 04:50:54;;;;;;;0.65;0.65;;;;;;;;;;4991290;28;20045;-76
2021/06/25 04:53:20;;;;;;;0.50;0.50;;;;;;;;;;4993241;28;20463;-77
2021/06/25 04:55:46;;;;;;;0.50;0.50;;;;;;;;;;4993287;28;20045;-76
2021/06/25 04:58:14;;;;;;;0.63;0.63;;;;;;;;;;4993254;28;20097;-76
2021/06/25 05:00:41;;;;;;;0.70;0.70;;;;;;;;;;4992957;28;20033;-76
2021/06/25 05:03:07;;;;;;;1.77;0.60;;;;;;;;;;4996337;28;20038;-76
2021/06/25 05:05:33;;;;;;;0.70;0.70;;;;;;;;;;4995365;28;20030;-76
2021/06/25 05:08:00;;;;;;;2.22;1.00;;;;;;;;;;4992989;28;20037;-76
2021/06/25 05:10:26;;;;;;;2.33;0.63;;;;;;;;;;4989193;28;20061;-76
2021/06/25 05:12:52;;;;;;;0.65;0.65;;;;;;;;;;4973616;28;20027;-76
2021/06/25 05:15:20;;;;;;;0.40;0.40;;;;;;;;;;4983147;28;20065;-76
2021/06/25 05:17:46;;;;;;;0.60;0.60;;;;;;;;;;4992296;28;20030;-76
2021/06/25 05:20:12;;;;;;;0.70;0.70;;;;;;;;;;4975022;28;20026;-76
2021/06/25 05:22:38;;;;;;;0.65;0.65;;;;;;;;;;4993571;28;20026;-77
2021/06/25 05:25:05;;;;;;;0.50;0.50;;;;;;;;;;4994132;28;20022;-77
2021/06/25 05:27:31;;;;;;;0.68;0.68;;;;;;;;;;4990877;28;20029;-77
2021/06/25 05:29:57;;;;;;;3.65;0.90;;;;;;;;;;4994482;28;20095;-76
2021/06/25 05:32:23;;;;;;;0.90;0.57;;;;;;;;;;4983278;28;20026;-76
2021/06/25 05:34:49;;;;;;;0.65;0.50;;;;;;;;;;4990904;28;20497;-76
2021/06/25 05:37:15;;;;;;;3.40;1.25;;;;;;;;;;5016580;28;20022;-76
2021/06/25 05:39:41;;;;;;;0.32;0.32;;;;;;;;;;5016130;28;20383;-76
2021/06/25 05:42:08;;;;;;;0.55;0.43;;;;;;;;;;5016132;28;20422;-76
2021/06/25 05:44:35;;;;;;;0.52;0.50;;;;;;;;;;5016249;28;20022;-76
2021/06/25 05:47:01;;;;;;;0.43;0.43;;;;;;;;;;5016808;28;20026;-77
2021/06/25 05:49:27;;;;;;;0.70;0.70;;;;;;;;;;5009925;28;20026;-77
2021/06/25 05:51:53;;;;;;;2.28;0.50;;;;;;;;;;4996644;28;20639;-77
2021/06/25 05:54:19;;;;;;;1.05;0.90;;;;;;;;;;4997064;28;20474;-77
2021/06/25 05:56:45;;;;;;;0.90;0.90;;;;;;;;;;4995923;28;20027;-77
2021/06/25 05:59:12;;;;;;;1.30;0.60;;;;;;;;;;4997367;28;20109;-77
2021/06/25 06:01:38;;;;;;;0.75;0.60;;;;;;;;;;4990530;28;20101;-77
2021/06/25 06:04:05;;;;;;;0.60;0.60;;;;;;;;;;5005894;28;20101;-77
2021/06/25 06:06:31;;;;;;;3.63;0.82;;;;;;;;;;5014800;28;20068;-77
2021/06/25 06:08:57;;;;;;;0.90;0.90;;;;;;;;;;4995673;28;20110;-77
2021/06/25 06:11:23;;;;;;;0.93;0.70;;;;;;;;;;4996617;28;20030;-76
2021/06/25 06:13:49;;;;;;;0.73;0.73;;;;;;;;;;4995837;28;20177;-77
2021/06/25 06:16:15;;;;;;;0.70;0.70;;;;;;;;;;4995910;28;20030;-76
2021/06/25 06:18:47;;;;;;;1.25;0.88;;;;;;;;;;4996220;28;20487;-76
2021/06/25 06:21:14;;;;;;;0.82;0.82;;;;;;;;;;4996372;28;20062;-77
2021/06/25 06:32:01;;;;;;;0.70;0.70;;;;;;;;;;4984789;28;20037;-77
2021/06/25 06:34:31;;;;;;;1.25;0.80;;;;;;;;;;5008099;28;20029;-77
2021/06/25 06:36:57;;;;;;;1.10;1.10;;;;;;;;;;5015791;28;20522;-77
2021/06/25 06:39:23;;;;;;;1.30;0.95;;;;;;;;;;5014883;28;20021;-77
2021/06/25 06:41:49;;;;;;;0.95;0.95;;;;;;;;;;5014482;28;20026;-77
2021/06/25 06:44:15;;;;;;;1.00;1.00;;;;;;;;;;4996145;28;20203;-77
2021/06/25 06:46:41;;;;;;;1.10;1.10;;;;;;;;;;4995494;28;20372;-77
2021/06/25 06:49:08;;;;;;;1.10;1.10;;;;;;;;;;4995692;28;20434;-77
2021/06/25 06:51:34;;;;;;;2.38;1.10;;;;;;;;;;4995687;28;20034;-77
2021/06/25 06:54:00;;;;;;;1.08;0.98;;;;;;;;;;4995575;28;20487;-77
2021/06/25 06:56:27;;;;;;;1.33;1.17;;;;;;;;;;4995521;28;20026;-77
2021/06/25 06:58:53;;;;;;;0.95;0.85;;;;;;;;;;4995225;28;20538;-77
2021/06/25 07:01:24;;;;;;;1.90;1.20;;;;;;;;;;4995015;28;20027;-77
2021/06/25 07:03:50;;;;;;;1.35;1.10;;;;;;;;;;5002975;28;20487;-77
2021/06/25 07:06:16;;;;;;;1.40;1.30;;;;;;;;;;5014083;28;20556;-77
2021/06/25 07:08:42;;;;;;;1.05;1.05;;;;;;;;;;5013503;28;20018;-77
2021/06/25 07:11:08;;;;;;;2.97;1.50;;;;;;;;;;4999758;28;20032;-77
2021/06/25 07:13:34;;;;;;;1.30;1.23;;;;;;;;;;5014721;28;20057;-77
2021/06/25 07:16:01;;;;;;;1.30;1.20;;;;;;;;;;5014989;28;20383;-77
2021/06/25 07:18:27;;;;;;;0.98;0.98;;;;;;;;;;5014179;28;20033;-77
2021/06/25 07:20:53;;;;;;;1.30;1.30;;;;;;;;;;4997088;28;20022;-77
2021/06/25 07:23:19;;;;;;;1.80;1.70;;;;;;;;;;5013935;28;20014;-77
2021/06/25 07:25:46;;;;;;;1.45;1.35;;;;;;;;;;4996518;28;20372;-77
2021/06/25 07:28:12;;;;;;;2.03;1.33;;;;;;;;;;5014127;28;20022;-77
2021/06/25 07:30:38;;;;;;;1.92;1.83;;;;;;;;;;5002903;28;20034;-77
2021/06/25 07:33:04;;;;;;;2.92;1.63;;;;;;;;;;5014192;28;20391;-77
2021/06/25 07:35:30;;;;;;;2.45;1.52;;;;;;;;;;4997104;28;20041;-77
2021/06/25 07:37:56;;;;;;;2.78;2.00;;;;;;;;;;4994588;28;20467;-77
2021/06/25 07:40:22;;;;;;;2.30;1.73;;;;;;;;;;4998321;28;20026;-76
2021/06/25 07:42:49;;;;;;;2.83;1.80;;;;;;;;;;5009529;28;20393;-76
2021/06/25 07:45:15;;;;;;;1.83;1.73;;;;;;;;;;4994335;28;20026;-77
2021/06/25 07:47:42;;;;;;;2.78;1.80;;;;;;;;;;4995126;28;20093;-76
2021/06/25 07:50:12;;;;;;;1.80;1.58;;;;;;;;;;4994598;28;20109;-76
2021/06/25 07:52:38;;;;;;;2.90;1.60;;;;;;;;;;4994354;28;20096;-76
2021/06/25 07:55:05;;;;;;;3.63;1.60;;;;;;;;;;4992972;28;20035;-76
2021/06/25 07:57:31;;;;;;;1.63;1.40;;;;;;;;;;4993916;28;20046;-76
2021/06/25 07:59:57;;;;;;;1.70;1.60;;;;;;;;;;4993745;28;20022;-76
2021/06/25 08:02:23;;;;;;;3.17;2.17;;;;;;;;;;4993731;28;20022;-76
2021/06/25 08:04:49;;;;;;;4.35;2.00;;;;;;;;;;4992854;28;20038;-76
2021/06/25 08:07:16;;;;;;;2.33;1.88;;;;;;;;;;4993898;28;20154;-76
2021/06/25 08:09:42;;;;;;;3.40;1.60;;;;;;;;;;5000117;28;20037;-76
2021/06/25 08:12:09;;;;;;;1.77;1.67;;;;;;;;;;5005220;28;20029;-76
2021/06/25 08:14:36;;;;;;;1.98;1.50;;;;;;;;;;5008317;28;20446;-76
2021/06/25 08:17:02;;;;;;;1.42;1.30;;;;;;;;;;4993972;28;20065;-76
2021/06/25 08:19:28;;;;;;;1.55;1.20;;;;;;;;;;4993899;28;20081;-76
2021/06/25 08:21:54;;;;;;;1.25;1.15;;;;;;;;;;4994076;28;20027;-76
2021/06/25 08:24:20;;;;;;;1.10;1.10;;;;;;;;;;4993309;28;20317;-76
2021/06/25 08:26:46;;;;;;;1.13;1.00;;;;;;;;;;4993631;28;20057;-76
2021/06/25 08:29:12;;;;;;;1.05;1.05;;;;;;;;;;4993335;28;20088;-76
2021/06/25 08:31:39;;;;;;;3.42;1.23;;;;;;;;;;4976440;28;20121;-76
2021/06/25 08:34:10;;;;;;;1.48;1.10;;;;;;;;;;4993429;28;20030;-76
2021/06/25 08:36:36;;;;;;;2.40;1.02;;;;;;;;;;4993315;28;20026;-76
2021/06/25 08:39:02;;;;;;;2.15;1.40;;;;;;;;;;4994218;28;20109;-76
2021/06/25 08:41:28;;;;;;;0.98;0.98;;;;;;;;;;5004423;28;20096;-76
2021/06/25 08:43:54;;;;;;;1.80;0.90;;;;;;;;;;5012954;28;20092;-76
2021/06/25 08:46:21;;;;;;;1.08;0.93;;;;;;;;;;5002871;28;20038;-76
2021/06/25 08:48:48;;;;;;;1.10;1.00;;;;;;;;;;4993313;28;20026;-77
2021/06/25 08:51:14;;;;;;;1.50;0.95;;;;;;;;;;4993261;28;20022;-76
2021/06/25 08:53:40;;;;;;;0.73;0.73;;;;;;;;;;4992984;28;20034;-75
2021/06/25 08:56:07;;;;;;;1.90;0.80;;;;;;;;;;4992282;28;20034;-76
2021/06/25 08:58:33;;;;;;;1.33;0.88;;;;;;;;;;4992686;28;20867;-76
2021/06/25 09:01:00;;;;;;;0.95;0.95;;;;;;;;;;4992759;28;20034;-76
2021/06/25 09:03:27;;;;;;;1.00;1.00;;;;;;;;;;4993383;28;20037;-76
2021/06/25 09:06:06;;;;;;;1.20;1.10;;;;;;;;;;4993659;28;20031;-77
2021/06/25 09:08:32;;;;;;;0.60;0.60;;;;;;;;;;4992850;28;20078;-77
2021/06/25 09:11:00;;;;;;;1.02;0.57;;;;;;;;;;5001631;28;20027;-77
2021/06/25 09:13:32;;;;;;;1.30;0.50;;;;;;;;;;4994970;28;20380;-74
2021/06/25 09:15:58;;;;;;;0.68;0.68;;;;;;;;;;5012375;28;20049;-77
2021/06/25 09:18:25;;;;;;;1.67;0.70;;;;;;;;;;4994468;28;20100;-77
2021/06/25 09:20:55;;;;;;;0.52;0.50;;;;;;;;;;4992794;28;20019;-77
2021/06/25 09:23:39;;;;;;;2.47;0.82;;;;;;;;;;4993063;28;20480;-75
2021/06/25 09:26:09;;;;;;;0.73;0.73;;;;;;;;;;4993042;28;20438;-75
2021/06/25 09:28:37;;;;;;;0.98;0.90;;;;;;;;;;4992539;28;20311;-75
2021/06/25 09:31:16;;;;;;;0.82;0.82;;;;;;;;;;4975410;28;20102;-75
2021/06/25 09:33:47;;;;;;;0.70;0.70;;;;;;;;;;4992316;28;20042;-75
2021/06/25 09:36:26;;;;;;;0.65;0.65;;;;;;;;;;4974473;28;20491;-75
2021/06/25 09:38:59;;;;;;;0.73;0.70;;;;;;;;;;4992276;28;20038;-75
2021/06/25 09:41:26;;;;;;;1.35;0.60;;;;;;;;;;4993099;28;20030;-75
2021/06/25 09:43:56;;;;;;;0.70;0.70;;;;;;;;;;4992363;28;20424;-75
2021/06/25 09:46:26;;;;;;;1.40;0.70;;;;;;;;;;4991895;28;20479;-76
2021/06/25 09:48:53;;;;;;;0.95;0.65;;;;;;;;;;4991498;28;20514;-75
2021/06/25 09:51:21;;;;;;;0.60;0.60;;;;;;;;;;4991777;28;20122;-75
2021/06/25 09:54:07;;;;;;;1.85;0.70;;;;;;;;;;4991942;28;20116;-74
2021/06/25 09:56:37;;;;;;;1.02;0.80;;;;;;;;;;4991809;28;20041;-74
2021/06/25 09:59:33;;;;;;;0.68;0.68;;;;;;;;;;4991174;28;20034;-75
2021/06/25 10:02:20;;;;;;;0.80;0.80;;;;;;;;;;4991889;28;20019;-75
2021/06/25 10:04:49;;;;;;;0.60;0.60;;;;;;;;;;4981685;28;20117;-76
2021/06/25 10:07:16;;;;;;;0.75;0.75;;;;;;;;;;4991574;28;20710;-76
2021/06/25 10:09:43;;;;;;;0.60;0.60;;;;;;;;;;4995476;28;20034;-75
2021/06/25 10:12:13;;;;;;;0.70;0.70;;;;;;;;;;5003409;28;20037;-75
2021/06/25 10:14:40;;;;;;;0.93;0.77;;;;;;;;;;5011583;28;20030;-75
2021/06/25 10:17:08;;;;;;;0.50;0.50;;;;;;;;;;5011214;28;20036;-75
2021/06/25 10:19:38;;;;;;;1.05;0.90;;;;;;;;;;5002835;28;20026;-75
2021/06/25 10:22:05;;;;;;;2.55;0.80;;;;;;;;;;4995014;28;20345;-75
2021/06/25 10:24:33;;;;;;;1.40;1.30;;;;;;;;;;4995002;28;20494;-75
2021/06/25 10:26:59;;;;;;;0.80;0.80;;;;;;;;;;4995037;28;20432;-75
2021/06/25 10:29:26;;;;;;;0.70;0.70;;;;;;;;;;4994637;28;20042;-75
2021/06/25 10:31:53;;;;;;;0.90;0.90;;;;;;;;;;4994398;28;20030;-76
2021/06/25 10:34:19;;;;;;;0.70;0.70;;;;;;;;;;4994529;28;20029;-75
2021/06/25 10:36:45;;;;;;;1.23;0.85;;;;;;;;;;4994862;28;20024;-75
2021/06/25 10:39:14;;;;;;;1.95;1.75;;;;;;;;;;4995135;28;20065;-75
2021/06/25 10:42:10;;;;;;;0.80;0.80;;;;;;;;;;5002321;28;20026;-75
2021/06/25 10:44:56;;;;;;;0.57;0.57;;;;;;;;;;4965075;28;20476;-74
2021/06/25 10:47:26;;;;;;;1.23;0.82;;;;;;;;;;4993657;28;20025;-74
2021/06/25 10:50:01;;;;;;;2.42;1.02;;;;;;;;;;4994787;28;20019;-75
2021/06/25 10:52:27;;;;;;;0.90;0.90;;;;;;;;;;4981945;28;20484;-75
2021/06/25 10:55:05;;;;;;;0.82;0.82;;;;;;;;;;4974858;28;20045;-76
2021/06/25 10:57:32;;;;;;;0.80;0.80;;;;;;;;;;4975533;28;20077;-74
2021/06/25 10:59:58;;;;;;;1.00;1.00;;;;;;;;;;4975106;28;20023;-75
2021/06/25 11:02:41;;;;;;;2.20;1.02;;;;;;;;;;5000540;28;20034;-76
2021/06/25 11:05:39;;;;;;;0.80;0.80;;;;;;;;;;5007349;28;20420;-77
2021/06/25 11:08:14;;;;;;;0.80;0.80;;;;;;;;;;4969326;28;20042;-76
2021/06/25 11:10:48;;;;;;;0.95;0.90;;;;;;;;;;5002407;28;20023;-75
2021/06/25 11:13:17;;;;;;;1.85;1.02;;;;;;;;;;5005926;28;20030;-75
2021/06/25 11:15:44;;;;;;;1.13;1.02;;;;;;;;;;4993747;28;20022;-75
2021/06/25 11:18:18;;;;;;;1.52;1.42;;;;;;;;;;4969376;28;20378;-75
2021/06/25 11:21:02;;;;;;;1.42;1.02;;;;;;;;;;4992326;28;20077;-75
2021/06/25 11:23:37;;;;;;;1.08;1.00;;;;;;;;;;4992583;28;20033;-75
2021/06/25 11:26:04;;;;;;;1.48;1.00;;;;;;;;;;4993561;28;20073;-75
2021/06/25 11:28:35;;;;;;;1.80;1.58;;;;;;;;;;4984156;28;20030;-75
2021/06/25 11:31:01;;;;;;;1.58;1.45;;;;;;;;;;4998535;28;20129;-75
2021/06/25 11:33:30;;;;;;;3.42;1.63;;;;;;;;;;5005180;28;20053;-75
2021/06/25 11:36:17;;;;;;;2.00;1.13;;;;;;;;;;5007240;28;20061;-76
2021/06/25 11:39:01;;;;;;;1.05;1.05;;;;;;;;;;5009068;28;20025;-74
2021/06/25 11:41:34;;;;;;;0.93;0.82;;;;;;;;;;4983492;28;20415;-74
2021/06/25 11:44:01;;;;;;;1.13;1.00;;;;;;;;;;4997218;28;20028;-76
2021/06/25 11:46:27;;;;;;;3.28;1.10;;;;;;;;;;5000206;28;20026;-75
2021/06/25 11:49:01;;;;;;;2.47;1.08;;;;;;;;;;5013309;28;20048;-75
2021/06/25 11:51:33;;;;;;;0.70;0.63;;;;;;;;;;5003366;28;20324;-75
2021/06/25 11:54:01;;;;;;;0.75;0.75;;;;;;;;;;4993650;28;20027;-75
2021/06/25 11:56:27;;;;;;;0.80;0.80;;;;;;;;;;4993473;28;20119;-75
2021/06/25 11:58:54;;;;;;;1.00;1.00;;;;;;;;;;4993110;28;20029;-75
2021/06/25 12:01:20;;;;;;;2.60;1.00;;;;;;;;;;4993210;28;20434;-75
2021/06/25 12:03:46;;;;;;;3.05;0.85;;;;;;;;;;4992994;28;20112;-75
2021/06/25 12:06:12;;;;;;;0.80;0.80;;;;;;;;;;4993004;28;20053;-75
2021/06/25 12:09:01;;;;;;;2.33;0.60;;;;;;;;;;4988385;28;20026;-75
2021/06/25 12:11:29;;;;;;;1.17;0.95;;;;;;;;;;4994673;28;20049;-74
2021/06/25 12:13:57;;;;;;;0.68;0.68;;;;;;;;;;5000138;28;20378;-75
2021/06/25 12:16:23;;;;;;;0.70;0.70;;;;;;;;;;5008068;28;20101;-75
2021/06/25 12:18:49;;;;;;;0.95;0.60;;;;;;;;;;4993866;28;20378;-75
2021/06/25 12:21:17;;;;;;;0.60;0.60;;;;;;;;;;4994592;28;20022;-75
2021/06/25 12:23:43;;;;;;;0.30;0.30;;;;;;;;;;5003913;28;20097;-75
2021/06/25 12:26:12;;;;;;;0.52;0.52;;;;;;;;;;5007857;28;20030;-75
2021/06/25 12:28:40;;;;;;;1.95;0.70;;;;;;;;;;4999991;28;20018;-75
2021/06/25 12:31:12;;;;;;;0.55;0.55;;;;;;;;;;4974278;28;20038;-75
2021/06/25 12:33:38;;;;;;;0.50;0.50;;;;;;;;;;4992620;28;20034;-75
2021/06/25 12:36:04;;;;;;;1.50;0.70;;;;;;;;;;4991159;28;20080;-75
2021/06/25 12:38:31;;;;;;;1.10;0.60;;;;;;;;;;4981723;28;20033;-75
2021/06/25 12:41:04;;;;;;;1.70;0.73;;;;;;;;;;4998853;28;20030;-75
2021/06/25 12:43:30;;;;;;;0.75;0.55;;;;;;;;;;5012253;28;20101;-75
2021/06/25 12:45:58;;;;;;;0.50;0.50;;;;;;;;;;5007725;28;20486;-75
2021/06/25 12:48:25;;;;;;;0.85;0.60;;;;;;;;;;4980384;28;20030;-74
2021/06/25 12:51:14;;;;;;;1.52;0.80;;;;;;;;;;4986075;28;20054;-75
2021/06/25 12:53:43;;;;;;;1.45;0.60;;;;;;;;;;4988328;28;20042;-75
2021/06/25 12:56:18;;;;;;;0.55;0.47;;;;;;;;;;4992159;28;20027;-76
2021/06/25 12:58:51;;;;;;;1.63;0.80;;;;;;;;;;5012058;28;20049;-75
2021/06/25 13:01:17;;;;;;;0.63;0.63;;;;;;;;;;5005618;28;20033;-76
2021/06/25 13:03:44;;;;;;;0.50;0.50;;;;;;;;;;4993251;28;20042;-75
2021/06/25 13:06:30;;;;;;;1.10;0.70;;;;;;;;;;4980219;28;20029;-75
2021/06/25 13:08:57;;;;;;;1.77;0.52;;;;;;;;;;5011168;28;20037;-75
2021/06/25 13:11:24;;;;;;;0.47;0.45;;;;;;;;;;4998833;28;20034;-76
2021/06/25 13:13:50;;;;;;;0.47;0.47;;;;;;;;;;5007012;28;20022;-76
2021/06/25 13:16:17;;;;;;;0.40;0.40;;;;;;;;;;4992203;28;20060;-75
2021/06/25 13:18:45;;;;;;;0.30;0.30;;;;;;;;;;5007941;28;20022;-75
2021/06/25 13:21:27;;;;;;;0.55;0.55;;;;;;;;;;4996272;28;20050;-76
2021/06/25 13:24:05;;;;;;;0.93;0.60;;;;;;;;;;4983937;28;20026;-78
2021/06/25 13:26:39;;;;;;;1.55;0.75;;;;;;;;;;4992393;28;20026;-77
2021/06/25 13:29:05;;;;;;;0.70;0.55;;;;;;;;;;4992447;28;20030;-76
2021/06/25 13:31:31;;;;;;;0.60;0.60;;;;;;;;;;4982806;28;20199;-78
2021/06/25 13:33:57;;;;;;;1.07;0.90;;;;;;;;;;4975644;28;20395;-75
2021/06/25 13:36:23;;;;;;;1.85;0.73;;;;;;;;;;4976875;28;20244;-75
2021/06/25 13:39:06;;;;;;;0.52;0.52;;;;;;;;;;4996078;28;20026;-75
2021/06/25 13:41:36;;;;;;;0.70;0.70;;;;;;;;;;4989488;28;20097;-75
2021/06/25 13:44:02;;;;;;;0.88;0.88;;;;;;;;;;5001506;28;20034;-75
2021/06/25 13:46:29;;;;;;;0.70;0.70;;;;;;;;;;4967560;28;20414;-75
2021/06/25 13:49:05;;;;;;;0.40;0.40;;;;;;;;;;4968062;28;20391;-76
2021/06/25 13:51:31;;;;;;;2.08;0.80;;;;;;;;;;4975353;28;20034;-75
2021/06/25 13:53:57;;;;;;;2.88;0.70;;;;;;;;;;4988735;28;20114;-75
2021/06/25 13:56:25;;;;;;;0.60;0.60;;;;;;;;;;4997723;28;20122;-75
2021/06/25 13:58:57;;;;;;;0.40;0.40;;;;;;;;;;5004420;28;20407;-76
2021/06/25 14:01:28;;;;;;;0.70;0.70;;;;;;;;;;5000176;28;20454;-75
2021/06/25 14:03:55;;;;;;;0.50;0.50;;;;;;;;;;5003396;28;20476;-75
2021/06/25 14:06:21;;;;;;;0.60;0.60;;;;;;;;;;4996382;28;20038;-75
2021/06/25 14:08:47;;;;;;;0.80;0.80;;;;;;;;;;4997316;28;20098;-75
2021/06/25 14:11:14;;;;;;;2.60;1.17;;;;;;;;;;5016673;28;20038;-75
2021/06/25 14:13:42;;;;;;;3.05;0.82;;;;;;;;;;5026063;28;20175;-75
2021/06/25 14:16:23;;;;;;;1.90;0.95;;;;;;;;;;5015896;28;20022;-75
2021/06/25 14:18:50;;;;;;;2.65;1.00;;;;;;;;;;4980483;28;20023;-75
2021/06/25 14:21:18;;;;;;;1.98;0.90;;;;;;;;;;4978657;28;20033;-75
2021/06/25 14:23:45;;;;;;;0.90;0.90;;;;;;;;;;4977375;28;20026;-75
2021/06/25 14:26:12;;;;;;;2.05;0.82;;;;;;;;;;4977355;28;20130;-75
2021/06/25 14:28:38;;;;;;;3.13;0.85;;;;;;;;;;4977401;28;20066;-75
2021/06/25 14:31:04;;;;;;;0.82;0.75;;;;;;;;;;4976879;28;20031;-75
2021/06/25 14:33:30;;;;;;;1.63;1.35;;;;;;;;;;4976853;28;20088;-75
2021/06/25 14:35:56;;;;;;;0.30;0.30;;;;;;;;;;4977084;28;20034;-75
2021/06/25 14:38:22;;;;;;;0.60;0.60;;;;;;;;;;4981876;28;20105;-75
2021/06/25 14:40:49;;;;;;;2.17;0.55;;;;;;;;;;5007613;28;20026;-75
2021/06/25 14:43:15;;;;;;;0.50;0.50;;;;;;;;;;5005499;28;20082;-74
2021/06/25 14:45:41;;;;;;;0.50;0.50;;;;;;;;;;5001508;28;20360;-75
2021/06/25 14:48:07;;;;;;;1.20;0.73;;;;;;;;;;4996156;28;20023;-75
2021/06/25 14:50:33;;;;;;;1.45;0.52;;;;;;;;;;4976916;28;20054;-75
2021/06/25 14:52:59;;;;;;;0.60;0.60;;;;;;;;;;4977081;28;20023;-75
2021/06/25 14:55:26;;;;;;;0.63;0.63;;;;;;;;;;4987005;28;20126;-75
2021/06/25 14:57:52;;;;;;;0.75;0.60;;;;;;;;;;4983924;28;20019;-75